createdAt,value
2022-08-21T00:02:01.534Z,23.05
2022-08-21T00:04:30.241Z,21.60
2022-08-21T00:06:56.642Z,21.77
2022-08-21T00:09:23.029Z,22.98
2022-08-21T00:11:49.429Z,21.13
2022-08-21T00:14:15.756Z,22.33
2022-08-21T00:16:42.279Z,22.98
2022-08-21T00:19:08.748Z,22.15
2022-08-21T00:21:35.387Z,21.42
2022-08-21T00:24:01.734Z,22.75
2022-08-21T00:26:28.361Z,21.05
2022-08-21T00:28:54.766Z,21.65
2022-08-21T00:31:22.887Z,22.52
2022-08-21T00:33:49.229Z,21.50
2022-08-21T00:36:15.737Z,22.27
2022-08-21T00:38:42.400Z,22.20
2022-08-21T00:41:29.857Z,22.65
2022-08-21T00:43:55.082Z,21.23
2022-08-21T00:46:21.470Z,23.27
2022-08-21T00:48:51.229Z,21.23
2022-08-21T00:51:23.024Z,22.02
2022-08-21T00:53:53.669Z,21.83
2022-08-21T00:56:20.378Z,21.05
2022-08-21T00:58:46.782Z,22.38
2022-08-21T01:01:15.001Z,22.85
2022-08-21T01:03:45.331Z,21.30
2022-08-21T01:09:02.110Z,21.48
2022-08-21T01:11:28.514Z,21.10
2022-08-21T01:13:55.040Z,21.40
2022-08-21T01:16:22.928Z,22.50
2022-08-21T01:18:49.411Z,22.58
2022-08-21T01:21:16.249Z,21.73
2022-08-21T01:23:42.983Z,24.65
2022-08-21T01:26:09.671Z,22.73
2022-08-21T01:28:36.350Z,21.50
2022-08-21T01:31:02.782Z,22.60
2022-08-21T01:33:29.162Z,21.27
2022-08-21T01:35:55.602Z,22.58
2022-08-21T01:38:21.878Z,20.45
2022-08-21T01:40:48.293Z,21.33
2022-08-21T01:43:14.670Z,21.45
2022-08-21T01:45:41.013Z,21.67
2022-08-21T01:48:07.312Z,22.15
2022-08-21T01:50:33.819Z,21.50
2022-08-21T01:53:00.145Z,21.35
2022-08-21T01:55:26.534Z,21.35
2022-08-21T01:57:53.125Z,21.25
2022-08-21T02:00:19.672Z,19.85
2022-08-21T02:02:46.146Z,22.17
2022-08-21T02:05:12.726Z,20.65
2022-08-21T02:07:39.899Z,20.10
2022-08-21T02:10:06.222Z,21.17
2022-08-21T02:12:32.622Z,19.38
2022-08-21T02:14:59.719Z,20.60
2022-08-21T02:17:26.027Z,19.80
2022-08-21T02:19:52.606Z,20.23
2022-08-21T02:22:19.202Z,19.13
2022-08-21T02:24:54.062Z,19.67
2022-08-21T02:27:24.662Z,20.70
2022-08-21T02:29:53.332Z,20.13
2022-08-21T02:32:19.659Z,20.88
2022-08-21T02:34:45.982Z,18.77
2022-08-21T02:37:12.434Z,19.73
2022-08-21T02:39:38.777Z,18.58
2022-08-21T02:42:05.122Z,21.05
2022-08-21T02:44:34.769Z,18.17
2022-08-21T02:47:01.409Z,18.50
2022-08-21T02:49:27.723Z,17.63
2022-08-21T02:51:54.055Z,17.50
2022-08-21T02:54:20.417Z,18.58
2022-08-21T02:56:46.867Z,17.77
2022-08-21T02:59:13.370Z,17.23
2022-08-21T03:01:39.799Z,17.27
2022-08-21T03:04:06.428Z,17.02
2022-08-21T03:06:33.209Z,18.08
2022-08-21T03:08:59.931Z,18.02
2022-08-21T03:11:26.920Z,16.95
2022-08-21T03:13:53.753Z,16.42
2022-08-21T03:16:21.255Z,17.00
2022-08-21T03:18:48.386Z,16.45
2022-08-21T03:21:14.998Z,16.80
2022-08-21T03:23:42.962Z,16.30
2022-08-21T03:26:10.958Z,16.42
2022-08-21T03:28:38.202Z,17.00
2022-08-21T03:31:04.984Z,16.25
2022-08-21T03:33:31.397Z,15.40
2022-08-21T03:35:57.958Z,16.85
2022-08-21T03:38:26.804Z,15.95
2022-08-21T03:40:53.218Z,15.63
2022-08-21T03:43:19.744Z,15.10
2022-08-21T03:45:46.222Z,15.93
2022-08-21T03:48:13.348Z,14.77
2022-08-21T03:50:41.044Z,14.30
2022-08-21T03:53:07.695Z,15.60
2022-08-21T03:55:34.040Z,14.90
2022-08-21T03:58:00.423Z,16.13
2022-08-21T04:00:43.370Z,14.80
2022-08-21T04:03:10.369Z,13.93
2022-08-21T04:05:36.807Z,14.40
2022-08-21T04:08:03.367Z,14.27
2022-08-21T04:10:31.060Z,13.73
2022-08-21T04:12:57.652Z,14.18
2022-08-21T04:15:24.090Z,13.68
2022-08-21T04:17:50.562Z,14.77
2022-08-21T04:20:17.046Z,13.80
2022-08-21T04:22:43.409Z,14.52
2022-08-21T04:25:09.800Z,13.65
2022-08-21T04:27:36.177Z,14.05
2022-08-21T04:30:02.570Z,13.43
2022-08-21T04:32:28.962Z,13.55
2022-08-21T04:34:55.366Z,13.50
2022-08-21T04:37:22.582Z,13.30
2022-08-21T04:39:53.353Z,13.15
2022-08-21T04:42:19.940Z,12.98
2022-08-21T04:44:46.231Z,13.07
2022-08-21T04:47:12.565Z,13.00
2022-08-21T04:49:38.858Z,11.85
2022-08-21T04:52:05.234Z,12.00
2022-08-21T04:54:31.731Z,12.57
2022-08-21T04:56:58.142Z,12.48
2022-08-21T04:59:25.422Z,11.18
2022-08-21T05:01:51.877Z,11.32
2022-08-21T05:04:18.351Z,11.38
2022-08-21T05:06:44.842Z,11.20
2022-08-21T05:09:11.196Z,11.35
2022-08-21T05:11:37.539Z,10.63
2022-08-21T05:14:03.848Z,11.35
2022-08-21T05:16:37.091Z,11.00
2022-08-21T05:19:04.245Z,10.38
2022-08-21T05:21:30.557Z,10.73
2022-08-21T05:23:56.919Z,10.63
2022-08-21T05:26:23.516Z,10.20
2022-08-21T05:28:49.912Z,10.88
2022-08-21T05:31:16.261Z,9.68
2022-08-21T05:33:43.999Z,9.57
2022-08-21T05:39:01.226Z,11.60
2022-08-21T05:41:27.722Z,10.00
2022-08-21T05:43:54.260Z,9.07
2022-08-21T05:46:20.712Z,8.93
2022-08-21T05:48:47.204Z,8.82
2022-08-21T05:51:13.552Z,8.93
2022-08-21T05:53:40.068Z,9.55
2022-08-21T05:56:06.608Z,9.25
2022-08-21T05:58:32.954Z,9.20
2022-08-21T06:00:59.331Z,9.18
2022-08-21T06:03:25.636Z,8.55
2022-08-21T06:05:52.006Z,9.35
2022-08-21T06:08:18.384Z,7.82
2022-08-21T06:10:45.097Z,8.95
2022-08-21T06:13:11.606Z,7.95
2022-08-21T06:15:37.922Z,9.15
2022-08-21T06:18:04.266Z,8.20
2022-08-21T06:20:30.878Z,9.32
2022-08-21T06:22:57.508Z,8.55
2022-08-21T06:25:24.194Z,8.45
2022-08-21T06:27:50.717Z,7.90
2022-08-21T06:30:17.090Z,8.38
2022-08-21T06:32:43.482Z,8.60
2022-08-21T06:35:09.849Z,7.90
2022-08-21T06:37:36.337Z,7.47
2022-08-21T06:40:02.736Z,8.50
2022-08-21T06:42:29.308Z,9.38
2022-08-21T06:44:55.777Z,8.95
2022-08-21T06:47:22.093Z,9.00
2022-08-21T06:49:48.502Z,8.27
2022-08-21T06:52:15.962Z,8.23
2022-08-21T06:54:42.326Z,8.98
2022-08-21T06:57:08.980Z,7.47
2022-08-21T06:59:35.371Z,8.25
2022-08-21T07:02:01.819Z,9.23
2022-08-21T07:04:28.268Z,7.70
2022-08-21T07:06:54.606Z,7.43
2022-08-21T07:09:24.538Z,7.10
2022-08-21T07:11:51.253Z,8.00
2022-08-21T07:14:20.429Z,7.60
2022-08-21T07:16:47.104Z,7.60
2022-08-21T07:19:13.606Z,7.50
2022-08-21T07:21:39.981Z,7.22
2022-08-21T07:24:06.298Z,7.05
2022-08-21T07:26:32.602Z,7.20
2022-08-21T07:28:58.953Z,7.25
2022-08-21T07:31:25.330Z,7.80
2022-08-21T07:33:55.120Z,7.60
2022-08-21T07:36:21.580Z,8.65
2022-08-21T07:38:48.234Z,7.18
2022-08-21T07:41:18.995Z,7.80
2022-08-21T07:43:46.185Z,6.88
2022-08-21T07:46:12.805Z,7.88
2022-08-21T07:48:39.142Z,6.93
2022-08-21T07:51:05.606Z,8.05
2022-08-21T07:53:31.955Z,7.72
2022-08-21T07:55:58.478Z,7.20
2022-08-21T07:58:25.023Z,6.88
2022-08-21T08:00:51.401Z,7.50
2022-08-21T08:03:28.566Z,8.32
2022-08-21T08:05:55.402Z,7.22
2022-08-21T08:08:21.737Z,8.82
2022-08-21T08:10:48.302Z,6.20
2022-08-21T08:13:14.658Z,6.82
2022-08-21T08:15:41.166Z,7.20
2022-08-21T08:18:09.586Z,5.88
2022-08-21T08:20:36.002Z,6.00
2022-08-21T08:23:02.661Z,6.75
2022-08-21T08:25:35.460Z,9.05
2022-08-21T08:28:03.518Z,7.25
2022-08-21T08:30:42.420Z,7.20
2022-08-21T08:33:08.794Z,5.90
2022-08-21T08:35:35.113Z,7.95
2022-08-21T08:38:05.570Z,7.20
2022-08-21T08:40:33.151Z,7.75
2022-08-21T08:42:59.681Z,6.10
2022-08-21T08:45:26.273Z,6.03
2022-08-21T08:47:52.766Z,9.93
2022-08-21T08:50:19.356Z,9.57
2022-08-21T08:52:45.738Z,5.07
2022-08-21T08:55:12.121Z,6.38
2022-08-21T08:57:38.497Z,8.05
2022-08-21T09:00:04.872Z,5.57
2022-08-21T09:02:31.618Z,8.13
2022-08-21T09:04:57.999Z,6.93
2022-08-21T09:07:24.502Z,6.18
2022-08-21T09:09:50.990Z,7.15
2022-08-21T09:12:17.326Z,8.10
2022-08-21T09:14:43.809Z,6.40
2022-08-21T09:17:10.351Z,7.65
2022-08-21T09:19:36.725Z,5.38
2022-08-21T09:22:03.289Z,6.60
2022-08-21T09:24:29.770Z,6.72
2022-08-21T09:26:56.191Z,5.30
2022-08-21T09:29:22.702Z,7.40
2022-08-21T09:31:49.212Z,7.10
2022-08-21T09:34:15.769Z,6.95
2022-08-21T09:36:42.137Z,6.45
2022-08-21T09:39:08.581Z,6.53
2022-08-21T09:41:34.973Z,5.57
2022-08-21T09:44:01.334Z,6.97
2022-08-21T09:46:28.063Z,5.53
2022-08-21T09:48:55.657Z,6.50
2022-08-21T09:51:23.662Z,6.00
2022-08-21T09:53:49.998Z,9.65
2022-08-21T09:56:18.079Z,5.53
2022-08-21T09:58:47.923Z,6.70
2022-08-21T10:01:14.292Z,6.95
2022-08-21T10:03:40.808Z,5.18
2022-08-21T10:06:09.253Z,5.18
2022-08-21T10:08:35.906Z,4.85
2022-08-21T10:11:02.231Z,5.93
2022-08-21T10:13:28.575Z,6.40
2022-08-21T10:15:54.964Z,5.93
2022-08-21T10:18:21.353Z,5.18
2022-08-21T10:20:47.693Z,6.50
2022-08-21T10:23:14.110Z,5.80
2022-08-21T10:25:40.482Z,5.22
2022-08-21T10:28:22.787Z,5.82
2022-08-21T10:30:49.209Z,5.60
2022-08-21T10:33:15.555Z,5.80
2022-08-21T10:35:41.929Z,5.97
2022-08-21T10:38:08.373Z,5.97
2022-08-21T10:40:34.669Z,5.20
2022-08-21T10:43:01.352Z,5.85
2022-08-21T10:45:27.709Z,6.28
2022-08-21T10:47:57.835Z,4.82
2022-08-21T10:50:24.545Z,4.88
2022-08-21T10:52:50.909Z,6.90
2022-08-21T10:55:17.265Z,6.82
2022-08-21T10:57:43.786Z,4.63
2022-08-21T11:00:10.190Z,6.05
2022-08-21T11:02:36.489Z,8.02
2022-08-21T11:05:02.839Z,5.13
2022-08-21T11:07:31.751Z,7.15
2022-08-21T11:10:00.762Z,5.70
2022-08-21T11:12:29.538Z,6.50
2022-08-21T11:14:55.890Z,5.63
2022-08-21T11:17:23.985Z,5.82
2022-08-21T11:19:50.310Z,5.78
2022-08-21T11:22:16.674Z,4.82
2022-08-21T11:24:43.171Z,5.38
2022-08-21T11:27:09.610Z,5.18
2022-08-21T11:29:36.006Z,6.72
2022-08-21T11:32:02.559Z,4.90
2022-08-21T11:34:28.886Z,5.95
2022-08-21T11:36:55.272Z,5.72
2022-08-21T11:39:22.887Z,6.40
2022-08-21T11:41:49.235Z,5.47
2022-08-21T11:44:15.802Z,6.22
2022-08-21T11:46:43.537Z,6.72
2022-08-21T11:49:09.859Z,5.63
2022-08-21T11:51:36.193Z,8.00
2022-08-21T11:54:02.725Z,4.95
2022-08-21T11:56:33.686Z,4.78
2022-08-21T11:58:59.957Z,5.10
2022-08-21T12:01:26.510Z,5.70
2022-08-21T12:03:52.874Z,5.40
2022-08-21T12:06:24.038Z,5.65
2022-08-21T12:08:50.966Z,5.38
2022-08-21T12:11:17.372Z,6.05
2022-08-21T12:13:43.838Z,5.82
2022-08-21T12:16:10.345Z,6.75
2022-08-21T12:18:36.697Z,6.05
2022-08-21T12:21:03.145Z,6.45
2022-08-21T12:23:29.605Z,4.72
2022-08-21T12:25:55.937Z,5.88
2022-08-21T12:28:22.310Z,5.25
2022-08-21T12:30:48.646Z,5.18
2022-08-21T12:33:15.346Z,6.25
2022-08-21T12:35:42.005Z,6.13
2022-08-21T12:38:08.511Z,6.25
2022-08-21T12:40:34.891Z,5.97
2022-08-21T12:43:02.889Z,5.38
2022-08-21T12:45:29.552Z,6.70
2022-08-21T12:47:55.870Z,6.40
2022-08-21T12:50:22.321Z,6.32
2022-08-21T12:52:48.910Z,5.30
2022-08-21T12:55:15.237Z,5.05
2022-08-21T12:57:41.614Z,5.47
2022-08-21T13:00:08.031Z,5.47
2022-08-21T13:02:34.362Z,5.85
2022-08-21T13:05:00.826Z,5.93
2022-08-21T13:07:27.254Z,6.03
2022-08-21T13:09:53.642Z,5.72
2022-08-21T13:12:19.998Z,6.07
2022-08-21T13:14:47.564Z,7.10
2022-08-21T13:17:13.976Z,5.03
2022-08-21T13:19:50.127Z,5.57
2022-08-21T13:22:34.267Z,6.30
2022-08-21T13:25:01.674Z,5.32
2022-08-21T13:27:33.219Z,5.28
2022-08-21T13:29:59.711Z,6.95
2022-08-21T13:32:26.102Z,6.18
2022-08-21T13:34:58.035Z,5.82
2022-08-21T13:37:24.446Z,5.15
2022-08-21T13:39:51.027Z,5.38
2022-08-21T13:42:17.514Z,5.65
2022-08-21T13:44:44.014Z,6.20
2022-08-21T13:47:10.373Z,5.55
2022-08-21T13:49:36.717Z,6.00
2022-08-21T13:52:03.063Z,6.00
2022-08-21T13:54:29.406Z,5.35
2022-08-21T13:56:55.694Z,5.68
2022-08-21T13:59:22.142Z,5.20
2022-08-21T14:01:48.730Z,5.72
2022-08-21T14:04:15.174Z,6.15
2022-08-21T14:06:41.673Z,4.90
2022-08-21T14:09:08.190Z,6.25
2022-08-21T14:11:34.518Z,6.38
2022-08-21T14:14:01.026Z,5.15
2022-08-21T14:16:27.319Z,6.60
2022-08-21T14:18:53.674Z,5.10
2022-08-21T14:21:20.051Z,5.05
2022-08-21T14:23:46.475Z,8.05
2022-08-21T14:26:12.910Z,5.68
2022-08-21T14:28:40.861Z,6.30
2022-08-21T14:31:07.226Z,5.15
2022-08-21T14:33:36.238Z,5.68
2022-08-21T14:36:02.589Z,5.55
2022-08-21T14:38:28.920Z,5.50
2022-08-21T14:40:55.438Z,5.43
2022-08-21T14:43:22.069Z,5.25
2022-08-21T14:45:48.605Z,6.65
2022-08-21T14:48:15.056Z,5.00
2022-08-21T14:50:41.621Z,5.40
2022-08-21T14:53:10.867Z,5.45
2022-08-21T14:55:37.591Z,4.95
2022-08-21T14:58:04.090Z,5.45
2022-08-21T15:00:36.056Z,5.80
2022-08-21T15:05:32.927Z,5.05
2022-08-21T15:08:00.553Z,6.53
2022-08-21T15:10:26.883Z,5.35
2022-08-21T15:12:53.258Z,5.63
2022-08-21T15:15:19.573Z,5.43
2022-08-21T15:17:48.393Z,5.18
2022-08-21T15:20:15.059Z,5.40
2022-08-21T15:22:41.424Z,5.80
2022-08-21T15:25:14.279Z,5.82
2022-08-21T15:27:40.646Z,5.47
2022-08-21T15:30:07.009Z,6.20
2022-08-21T15:32:33.450Z,5.55
2022-08-21T15:34:59.962Z,6.72
2022-08-21T15:37:26.394Z,5.93
2022-08-21T15:39:54.145Z,5.38
2022-08-21T15:42:21.002Z,5.53
2022-08-21T15:44:47.370Z,5.28
2022-08-21T15:47:13.732Z,5.38
2022-08-21T15:49:40.279Z,5.22
2022-08-21T15:52:06.688Z,5.00
2022-08-21T15:54:33.175Z,5.43
2022-08-21T15:56:59.846Z,5.40
2022-08-21T15:59:26.209Z,5.30
2022-08-21T16:01:52.554Z,6.78
2022-08-21T16:04:19.150Z,5.63
2022-08-21T16:06:53.268Z,5.93
2022-08-21T16:09:20.925Z,5.80
2022-08-21T16:11:47.756Z,4.93
2022-08-21T16:14:14.182Z,5.00
2022-08-21T16:16:40.624Z,5.28
2022-08-21T16:19:06.950Z,5.43
2022-08-21T16:21:33.313Z,5.13
2022-08-21T16:23:59.658Z,4.75
2022-08-21T16:26:26.045Z,5.68
2022-08-21T16:28:52.304Z,5.47
2022-08-21T16:31:19.023Z,5.05
2022-08-21T16:33:45.346Z,5.82
2022-08-21T16:36:11.833Z,5.30
2022-08-21T16:38:38.296Z,5.00
2022-08-21T16:41:04.814Z,5.68
2022-08-21T16:43:32.690Z,5.43
2022-08-21T16:45:59.062Z,6.00
2022-08-21T16:48:25.646Z,5.72
2022-08-21T16:50:51.937Z,5.10
2022-08-21T16:53:18.298Z,5.63
2022-08-21T16:55:45.759Z,5.03
2022-08-21T16:58:12.102Z,5.72
2022-08-21T17:00:39.193Z,5.10
2022-08-21T17:03:05.594Z,5.60
2022-08-21T17:05:34.765Z,5.90
2022-08-21T17:08:04.384Z,5.85
2022-08-21T17:10:31.344Z,4.95
2022-08-21T17:12:57.759Z,6.00
2022-08-21T17:15:24.855Z,6.20
2022-08-21T17:17:51.249Z,5.97
2022-08-21T17:20:17.788Z,5.03
2022-08-21T17:22:44.233Z,6.30
2022-08-21T17:25:10.668Z,6.45
2022-08-21T17:27:36.997Z,5.72
2022-08-21T17:30:03.351Z,5.60
2022-08-21T17:32:29.635Z,5.70
2022-08-21T17:34:55.939Z,5.75
2022-08-21T17:37:24.417Z,6.00
2022-08-21T17:39:52.813Z,5.95
2022-08-21T17:42:19.225Z,5.57
2022-08-21T17:44:45.656Z,5.43
2022-08-21T17:47:11.997Z,6.50
2022-08-21T17:49:38.374Z,5.80
2022-08-21T17:52:04.966Z,6.47
2022-08-21T17:54:31.360Z,5.75
2022-08-21T17:56:57.967Z,5.55
2022-08-21T17:59:24.293Z,5.82
2022-08-21T18:01:51.242Z,6.53
2022-08-21T18:04:17.647Z,5.75
2022-08-21T18:06:44.018Z,5.65
2022-08-21T18:09:10.323Z,5.72
2022-08-21T18:11:36.651Z,6.18
2022-08-21T18:14:07.357Z,5.82
2022-08-21T18:16:34.285Z,5.25
2022-08-21T18:19:00.630Z,5.90
2022-08-21T18:21:27.029Z,6.13
2022-08-21T18:23:53.835Z,5.97
2022-08-21T18:26:20.249Z,7.13
2022-08-21T18:28:46.558Z,6.63
2022-08-21T18:31:13.261Z,5.82
2022-08-21T18:33:39.906Z,5.55
2022-08-21T18:36:19.273Z,5.77
2022-08-21T18:38:46.298Z,5.40
2022-08-21T18:41:12.632Z,5.45
2022-08-21T18:43:39.137Z,6.22
2022-08-21T18:46:05.490Z,5.43
2022-08-21T18:48:31.857Z,5.40
2022-08-21T18:50:58.154Z,8.23
2022-08-21T18:53:27.627Z,6.82
2022-08-21T18:55:57.138Z,6.37
2022-08-21T18:58:24.278Z,5.25
2022-08-21T19:00:50.737Z,5.65
2022-08-21T19:03:21.922Z,5.97
2022-08-21T19:05:50.442Z,5.60
2022-08-21T19:08:16.918Z,5.18
2022-08-21T19:10:44.094Z,7.57
2022-08-21T19:13:12.223Z,4.85
2022-08-21T19:15:38.594Z,5.90
2022-08-21T19:18:05.658Z,5.32
2022-08-21T19:20:31.979Z,5.07
2022-08-21T19:22:58.398Z,6.18
2022-08-21T19:28:11.632Z,6.38
2022-08-21T19:30:38.414Z,6.22
2022-08-21T19:33:04.986Z,5.80
2022-08-21T19:35:32.646Z,5.63
2022-08-21T19:37:59.017Z,4.95
2022-08-21T19:40:26.262Z,6.03
2022-08-21T19:42:52.802Z,4.80
2022-08-21T19:45:19.202Z,5.65
2022-08-21T19:47:48.402Z,4.65
2022-08-21T19:50:18.037Z,5.15
2022-08-21T19:52:51.207Z,5.70
2022-08-21T19:55:23.695Z,6.78
2022-08-21T19:57:50.088Z,8.45
2022-08-21T20:03:03.441Z,5.20
2022-08-21T20:05:39.521Z,4.80
2022-08-21T20:08:06.463Z,5.60
2022-08-21T20:10:38.234Z,4.47
2022-08-21T20:13:10.818Z,4.80
2022-08-21T20:15:37.147Z,5.45
2022-08-21T20:18:03.658Z,6.30
2022-08-21T20:23:17.248Z,5.13
2022-08-21T20:25:54.236Z,5.53
2022-08-21T20:28:20.826Z,6.15
2022-08-21T20:30:48.403Z,4.90
2022-08-21T20:33:14.868Z,5.70
2022-08-21T20:35:41.478Z,4.65
2022-08-21T20:38:07.816Z,5.88
2022-08-21T20:40:34.235Z,5.22
2022-08-21T20:43:01.574Z,6.05
2022-08-21T20:45:28.047Z,4.43
2022-08-21T20:47:54.547Z,7.43
2022-08-21T20:50:20.907Z,5.50
2022-08-21T20:52:47.250Z,4.15
2022-08-21T20:55:15.766Z,7.22
2022-08-21T20:57:42.374Z,4.28
2022-08-21T21:00:14.268Z,4.47
2022-08-21T21:02:41.323Z,5.45
2022-08-21T21:05:07.845Z,5.35
2022-08-21T21:07:34.171Z,5.50
2022-08-21T21:10:00.530Z,4.47
2022-08-21T21:12:28.017Z,5.07
2022-08-21T21:14:54.658Z,5.95
2022-08-21T21:20:07.461Z,4.60
2022-08-21T21:22:36.557Z,4.78
2022-08-21T21:25:02.962Z,5.00
2022-08-21T21:27:34.937Z,6.07
2022-08-21T21:30:01.616Z,4.65
2022-08-21T21:32:28.049Z,4.32
2022-08-21T21:34:54.548Z,4.85
2022-08-21T21:37:25.361Z,5.38
2022-08-21T21:39:52.111Z,4.65
2022-08-21T21:42:19.133Z,4.97
2022-08-21T21:44:56.835Z,4.93
2022-08-21T21:50:18.687Z,6.88
2022-08-21T21:52:45.435Z,4.68
2022-08-21T21:55:11.834Z,5.95
2022-08-21T21:57:38.235Z,5.75
2022-08-21T22:00:04.559Z,5.53
2022-08-21T22:02:31.305Z,5.00
2022-08-21T22:04:58.146Z,5.55
2022-08-21T22:07:24.586Z,4.50
2022-08-21T22:09:51.291Z,8.32
2022-08-21T22:12:17.942Z,7.10
2022-08-21T22:14:46.664Z,7.18
2022-08-21T22:17:13.227Z,6.35
2022-08-21T22:19:39.582Z,5.35
2022-08-21T22:22:05.902Z,5.28
2022-08-21T22:24:35.159Z,5.05
2022-08-21T22:27:01.843Z,4.93
2022-08-21T22:29:28.439Z,5.00
2022-08-21T22:31:54.792Z,5.53
2022-08-21T22:34:21.194Z,4.82
2022-08-21T22:36:50.227Z,6.10
2022-08-21T22:39:18.263Z,5.25
2022-08-21T22:41:45.310Z,5.18
2022-08-21T22:44:12.834Z,4.97
2022-08-21T22:46:39.202Z,5.60
2022-08-21T22:49:05.858Z,5.45
2022-08-21T22:51:33.382Z,6.22
2022-08-21T22:54:00.131Z,5.88
2022-08-21T22:56:26.470Z,5.88
2022-08-21T22:58:52.805Z,7.05
2022-08-21T23:01:19.116Z,5.88
2022-08-21T23:03:45.672Z,5.07
2022-08-21T23:06:13.635Z,5.28
2022-08-21T23:08:41.550Z,4.88
2022-08-21T23:11:10.613Z,5.75
2022-08-21T23:13:37.127Z,6.07
2022-08-21T23:16:05.100Z,5.03
2022-08-21T23:18:32.876Z,5.00
2022-08-21T23:21:00.798Z,5.90
2022-08-21T23:23:29.142Z,5.20
2022-08-21T23:25:55.523Z,6.35
2022-08-21T23:28:22.170Z,5.40
2022-08-21T23:30:48.532Z,5.15
2022-08-21T23:33:15.035Z,5.40
2022-08-21T23:35:41.461Z,4.45
2022-08-21T23:38:09.377Z,10.65
2022-08-21T23:40:35.861Z,6.47
2022-08-21T23:43:02.736Z,5.55
2022-08-21T23:45:32.984Z,5.18
2022-08-21T23:47:59.513Z,5.25
2022-08-21T23:50:25.830Z,4.95
2022-08-21T23:55:36.255Z,5.53
2022-08-21T23:58:02.726Z,6.53
